Time;durP1;ratioP1;P1;durP2;ratioP2;P2;SDS_P1;SDS_P2;PMS_P1;PMS_P2;Temp;Humidity;BMP_temperature;BMP_pressure;BME280_temperature;BME280_humidity;BME280_pressure;Samples;Min_cycle;Max_cycle;Signal;HPM_P1;HPM_P2
2021/06/07 00:02:09;;;;;;;24.10;19.95;;;;;;;17.08;100.00;99083.66;4977304;28;104538;-73
2021/06/07 00:04:37;;;;;;;20.90;18.70;;;;;;;17.08;100.00;99086.34;4981000;28;104287;-73
2021/06/07 00:07:08;;;;;;;21.58;18.48;;;;;;;17.13;100.00;99086.75;4981993;28;102960;-73
2021/06/07 00:09:36;;;;;;;23.02;20.60;;;;;;;17.02;100.00;99087.75;4980840;28;103262;-73
2021/06/07 00:12:07;;;;;;;22.98;20.48;;;;;;;17.09;100.00;99088.88;4981578;28;105338;-73
2021/06/07 00:14:35;;;;;;;22.00;18.20;;;;;;;17.19;100.00;99083.50;4980912;28;104857;-73
2021/06/07 00:17:04;;;;;;;26.08;23.00;;;;;;;17.15;100.00;99082.13;4981770;28;103297;-73
2021/06/07 00:19:35;;;;;;;21.85;18.85;;;;;;;17.16;100.00;99089.13;4979216;28;103242;-74
2021/06/07 00:22:04;;;;;;;24.75;22.15;;;;;;;17.08;100.00;99086.34;4981320;28;105298;-73
2021/06/07 00:24:33;;;;;;;22.83;20.48;;;;;;;17.09;100.00;99082.69;4981160;28;103873;-73
2021/06/07 00:27:01;;;;;;;26.30;22.20;;;;;;;17.08;100.00;99091.69;4980601;28;102969;-73
2021/06/07 00:29:28;;;;;;;27.70;23.30;;;;;;;16.98;100.00;99083.66;4981238;28;103048;-73
2021/06/07 00:31:56;;;;;;;23.83;20.63;;;;;;;17.02;100.00;99085.06;4981057;28;103446;-73
2021/06/07 00:34:23;;;;;;;24.75;19.30;;;;;;;17.01;100.00;99085.25;4981309;28;103913;-73
2021/06/07 00:36:51;;;;;;;23.65;21.05;;;;;;;17.06;100.00;99088.31;4980755;28;102748;-73
2021/06/07 00:39:18;;;;;;;19.55;17.27;;;;;;;17.10;100.00;99089.69;4981763;28;103059;-73
2021/06/07 00:41:50;;;;;;;17.83;15.07;;;;;;;17.09;100.00;99085.38;4984559;28;104944;-74
2021/06/07 00:44:21;;;;;;;20.77;17.98;;;;;;;17.09;100.00;99088.03;4984860;28;103475;-73
2021/06/07 00:46:49;;;;;;;20.95;18.10;;;;;;;17.04;100.00;99088.44;4984766;28;103164;-73
2021/06/07 00:49:17;;;;;;;20.30;18.05;;;;;;;17.07;100.00;99079.31;4991270;28;103341;-74
2021/06/07 00:51:46;;;;;;;18.17;16.20;;;;;;;17.17;100.00;99091.69;4982433;28;103724;-73
2021/06/07 00:54:14;;;;;;;26.55;23.42;;;;;;;17.10;100.00;99084.34;4983559;28;103733;-73
2021/06/07 00:56:41;;;;;;;23.10;18.85;;;;;;;16.93;100.00;99085.06;4984752;28;103151;-73
2021/06/07 00:59:11;;;;;;;24.88;21.80;;;;;;;17.04;100.00;99080.44;4983916;28;102892;-74
2021/06/07 01:01:38;;;;;;;24.60;20.05;;;;;;;17.13;100.00;99078.72;4979686;28;105452;-73
2021/06/07 01:04:06;;;;;;;19.27;16.50;;;;;;;17.09;100.00;99077.34;4983732;28;111095;-73
2021/06/07 01:06:36;;;;;;;27.35;21.80;;;;;;;17.05;100.00;99079.47;4984364;28;102971;-73
2021/06/07 01:09:04;;;;;;;19.92;17.38;;;;;;;17.16;100.00;99081.13;4986078;28;103141;-73
2021/06/07 01:11:33;;;;;;;24.30;20.88;;;;;;;17.13;100.00;99078.72;4983570;28;105046;-73
2021/06/07 01:14:01;;;;;;;26.08;19.67;;;;;;;17.01;100.00;99077.22;4983326;28;104011;-73
2021/06/07 01:16:30;;;;;;;26.27;22.05;;;;;;;17.02;100.00;99076.22;4982514;28;104194;-73
2021/06/07 01:18:58;;;;;;;27.80;21.15;;;;;;;17.00;100.00;99068.38;4983861;28;103082;-73
2021/06/07 01:21:27;;;;;;;22.73;19.55;;;;;;;17.01;100.00;99071.88;4973907;28;104221;-74
2021/06/07 01:23:56;;;;;;;24.50;20.88;;;;;;;17.04;100.00;99071.59;4965059;28;107650;-73
2021/06/07 01:26:25;;;;;;;21.58;18.38;;;;;;;17.06;100.00;99070.47;4971675;28;102874;-73
2021/06/07 01:28:54;;;;;;;24.08;19.13;;;;;;;17.00;100.00;99062.19;4984415;28;102808;-73
2021/06/07 01:31:22;;;;;;;21.95;17.45;;;;;;;17.03;100.00;99056.56;4983724;28;104028;-73
2021/06/07 01:33:53;;;;;;;28.42;22.08;;;;;;;17.04;100.00;99055.59;4984045;28;104248;-73
2021/06/07 01:36:21;;;;;;;22.65;18.58;;;;;;;17.08;100.00;99060.50;4984060;28;102964;-73
2021/06/07 01:38:49;;;;;;;22.05;18.08;;;;;;;17.06;100.00;99056.28;4993840;28;103407;-73
2021/06/07 01:41:19;;;;;;;28.77;22.85;;;;;;;16.98;100.00;99048.16;4982345;28;103967;-73
2021/06/07 01:43:47;;;;;;;29.00;20.73;;;;;;;17.02;100.00;99052.19;4983435;28;103772;-73
2021/06/07 01:46:15;;;;;;;30.40;22.55;;;;;;;16.99;100.00;99053.34;4984217;28;102928;-74
2021/06/07 01:48:43;;;;;;;33.72;24.30;;;;;;;16.79;100.00;99057.00;4983640;28;103283;-74
2021/06/07 01:51:11;;;;;;;31.13;23.50;;;;;;;16.80;100.00;99042.69;4982172;28;111437;-73
2021/06/07 01:53:38;;;;;;;33.70;24.67;;;;;;;16.71;100.00;99047.03;4982344;28;103720;-74
2021/06/07 01:56:09;;;;;;;30.15;24.58;;;;;;;16.67;100.00;99045.63;4983898;28;103005;-73
2021/06/07 01:58:39;;;;;;;27.90;21.20;;;;;;;16.73;100.00;99042.41;4983770;28;103314;-73
2021/06/07 02:01:11;;;;;;;30.60;23.83;;;;;;;16.68;100.00;99049.97;4978737;28;104428;-73
2021/06/07 02:03:38;;;;;;;33.28;23.83;;;;;;;16.68;100.00;99049.97;4982266;28;106799;-74
2021/06/07 02:06:08;;;;;;;31.20;23.95;;;;;;;16.68;100.00;99041.13;4982816;28;102890;-73
2021/06/07 02:08:36;;;;;;;37.92;25.80;;;;;;;16.74;100.00;99040.56;4988611;28;102924;-73
2021/06/07 02:11:07;;;;;;;32.83;24.67;;;;;;;16.78;100.00;99039.31;4982768;28;103914;-73
2021/06/07 02:13:34;;;;;;;29.90;22.35;;;;;;;16.71;100.00;99041.72;4982516;28;103052;-73
2021/06/07 02:16:06;;;;;;;31.73;24.17;;;;;;;16.74;100.00;99041.41;4983014;28;102922;-73
2021/06/07 02:18:35;;;;;;;23.27;18.38;;;;;;;16.80;100.00;99037.34;4983359;28;104062;-73
2021/06/07 02:21:02;;;;;;;26.08;20.60;;;;;;;16.66;100.00;99046.63;4998070;28;104559;-73
2021/06/07 02:23:30;;;;;;;30.08;22.27;;;;;;;16.74;100.00;99044.09;4983264;28;103241;-73
2021/06/07 02:25:58;;;;;;;26.98;21.33;;;;;;;16.80;100.00;99046.19;4983403;28;102941;-73
2021/06/07 02:28:26;;;;;;;36.60;27.35;;;;;;;16.71;100.00;99051.53;4982827;28;102704;-73
2021/06/07 02:30:53;;;;;;;34.85;24.38;;;;;;;16.71;100.00;99051.53;4981556;28;104837;-73
2021/06/07 02:33:22;;;;;;;28.77;22.17;;;;;;;16.78;100.00;99050.84;4983083;28;103567;-74
2021/06/07 02:35:49;;;;;;;32.80;25.83;;;;;;;16.79;100.00;99049.00;4983350;28;103154;-73
2021/06/07 02:38:17;;;;;;;34.70;25.05;;;;;;;16.77;100.00;99045.63;4982204;28;103133;-73
2021/06/07 02:40:47;;;;;;;31.20;22.08;;;;;;;16.76;100.00;99054.59;4982584;28;104017;-73
2021/06/07 02:43:15;;;;;;;35.10;26.98;;;;;;;16.76;100.00;99051.94;4982804;28;105205;-73
2021/06/07 02:45:43;;;;;;;24.30;19.52;;;;;;;16.77;100.00;99054.47;4983034;28;103177;-73
2021/06/07 02:48:11;;;;;;;30.92;22.92;;;;;;;16.84;100.00;99051.25;4983226;28;103645;-73
2021/06/07 02:50:43;;;;;;;38.03;28.38;;;;;;;16.71;100.00;99049.72;4982696;28;104077;-73
2021/06/07 02:53:12;;;;;;;38.08;27.67;;;;;;;16.58;100.00;99062.50;4982097;28;104747;-73
2021/06/07 02:55:43;;;;;;;36.47;26.50;;;;;;;16.68;100.00;99058.00;4997081;28;103602;-72
2021/06/07 02:58:10;;;;;;;41.03;27.10;;;;;;;16.60;100.00;99057.00;4975121;28;104134;-74
2021/06/07 03:00:40;;;;;;;34.72;25.23;;;;;;;16.61;100.00;99050.69;4991760;28;103456;-73
2021/06/07 03:03:09;;;;;;;36.17;27.00;;;;;;;16.60;100.00;99055.19;4977620;28;105509;-73
2021/06/07 03:05:37;;;;;;;45.35;29.92;;;;;;;16.55;100.00;99046.78;4979424;28;103169;-72
2021/06/07 03:08:08;;;;;;;41.03;29.30;;;;;;;16.57;100.00;99057.28;4983563;28;103186;-72
2021/06/07 03:10:36;;;;;;;36.55;26.63;;;;;;;16.55;100.00;99052.09;4981894;28;103821;-72
2021/06/07 03:13:04;;;;;;;36.08;26.25;;;;;;;16.55;100.00;99053.91;4981014;28;103696;-73
2021/06/07 03:15:33;;;;;;;45.35;26.52;;;;;;;16.55;100.00;99054.75;4979551;28;102926;-72
2021/06/07 03:18:05;;;;;;;36.25;26.25;;;;;;;16.60;100.00;99055.19;4983051;28;103009;-73
2021/06/07 03:20:33;;;;;;;35.88;25.58;;;;;;;16.61;100.00;99056.88;4980468;28;104641;-74
2021/06/07 03:23:04;;;;;;;35.60;26.40;;;;;;;16.66;100.00;99059.97;4980972;28;104183;-74
2021/06/07 03:25:38;;;;;;;28.95;20.92;;;;;;;16.73;100.00;99063.75;4986728;28;103138;-77
2021/06/07 03:28:07;;;;;;;41.38;29.58;;;;;;;16.68;100.00;99058.00;4985725;28;103258;-78
2021/06/07 03:30:36;;;;;;;38.40;25.73;;;;;;;16.60;100.00;99057.00;4981023;28;104127;-80
2021/06/07 03:33:04;;;;;;;35.58;24.90;;;;;;;16.67;100.00;99058.16;4985536;28;103246;-78
2021/06/07 03:35:33;;;;;;;26.52;19.80;;;;;;;16.68;100.00;99057.13;4982026;28;102612;-82
2021/06/07 03:38:00;;;;;;;32.95;23.48;;;;;;;16.76;100.00;99055.47;4980443;28;103187;-85
2021/06/07 03:40:30;;;;;;;32.10;23.77;;;;;;;16.75;100.00;99058.28;4980921;28;106734;-82
2021/06/07 03:42:59;;;;;;;33.47;25.80;;;;;;;16.71;100.00;99055.03;4968133;28;103648;-86
2021/06/07 03:45:28;;;;;;;32.65;23.35;;;;;;;16.77;100.00;99057.16;4966857;28;103381;-78
2021/06/07 03:47:55;;;;;;;39.05;28.05;;;;;;;16.74;100.00;99051.25;4972645;28;103760;-77
2021/06/07 03:50:25;;;;;;;33.92;24.20;;;;;;;16.71;100.00;99057.72;4978560;28;103394;-76
2021/06/07 03:52:53;;;;;;;42.33;29.13;;;;;;;16.59;100.00;99056.16;4977743;28;104193;-76
2021/06/07 03:55:23;;;;;;;28.63;21.38;;;;;;;16.73;100.00;99058.41;4980247;28;103001;-77
2021/06/07 03:57:52;;;;;;;26.83;19.95;;;;;;;16.70;100.00;99056.00;4980136;28;103018;-76
2021/06/07 04:00:24;;;;;;;27.55;20.20;;;;;;;16.76;100.00;99052.78;4977621;28;104069;-76
2021/06/07 04:02:52;;;;;;;28.02;21.20;;;;;;;16.82;100.00;99054.06;4980543;28;105735;-76
2021/06/07 04:05:20;;;;;;;30.75;23.70;;;;;;;16.83;100.00;99054.91;4974013;28;103587;-77
2021/06/07 04:07:48;;;;;;;32.40;23.60;;;;;;;16.84;100.00;99056.59;4982440;28;103038;-76
2021/06/07 04:10:18;;;;;;;37.30;27.60;;;;;;;16.81;100.00;99058.53;4979552;28;104407;-76
2021/06/07 04:12:47;;;;;;;28.88;21.85;;;;;;;16.85;100.00;99060.91;4981099;28;104940;-77
2021/06/07 04:15:17;;;;;;;33.15;20.20;;;;;;;16.91;100.00;99052.34;4981791;28;103440;-77
2021/06/07 04:17:46;;;;;;;34.50;25.70;;;;;;;16.78;100.00;99053.50;4982347;28;104680;-77
2021/06/07 04:20:16;;;;;;;30.88;21.73;;;;;;;16.85;100.00;99055.59;4983440;28;103554;-75
2021/06/07 04:22:45;;;;;;;32.60;24.63;;;;;;;16.87;100.00;99056.31;4983140;28;103614;-76
2021/06/07 04:25:14;;;;;;;31.55;24.40;;;;;;;16.87;100.00;99056.31;4984463;28;103021;-75
2021/06/07 04:27:43;;;;;;;40.00;27.77;;;;;;;16.77;100.00;99062.50;4985023;28;103022;-77
2021/06/07 04:30:13;;;;;;;30.90;23.58;;;;;;;16.80;100.00;99056.88;4971859;28;104754;-79
2021/06/07 04:32:41;;;;;;;34.13;25.45;;;;;;;16.75;100.00;99056.47;4967652;28;103862;-77
2021/06/07 04:35:13;;;;;;;26.10;19.85;;;;;;;16.90;100.00;99056.03;4981234;28;102907;-78
2021/06/07 04:37:42;;;;;;;38.35;26.60;;;;;;;16.65;100.00;99055.59;4982966;28;103269;-84
2021/06/07 04:40:11;;;;;;;41.33;27.92;;;;;;;16.55;100.00;99057.44;4982385;28;103242;-80
2021/06/07 04:42:39;;;;;;;29.00;21.95;;;;;;;16.66;100.00;99046.63;4973973;28;103666;-80
2021/06/07 04:45:08;;;;;;;32.08;23.90;;;;;;;16.67;100.00;99050.16;4982444;28;103014;-81
2021/06/07 04:47:36;;;;;;;32.45;25.02;;;;;;;16.79;100.00;99049.84;4960953;28;103218;-76
2021/06/07 04:50:06;;;;;;;32.65;23.50;;;;;;;16.85;100.00;99052.91;4974396;28;104401;-76
2021/06/07 04:52:35;;;;;;;35.42;24.50;;;;;;;16.62;100.00;99055.88;4977063;28;104347;-77
2021/06/07 04:55:04;;;;;;;32.55;22.83;;;;;;;16.64;100.00;99051.28;4967915;28;103329;-77
2021/06/07 04:57:32;;;;;;;34.55;25.33;;;;;;;16.53;100.00;99054.03;4981301;28;103355;-77
2021/06/07 04:59:59;;;;;;;32.20;22.75;;;;;;;16.66;100.00;99049.28;4977764;28;104244;-79
2021/06/07 05:02:27;;;;;;;41.33;28.73;;;;;;;16.55;100.00;99052.09;4976721;28;110615;-77
2021/06/07 05:04:55;;;;;;;43.80;28.75;;;;;;;16.43;100.00;99050.50;4969514;28;104106;-77
2021/06/07 05:07:22;;;;;;;44.67;29.52;;;;;;;16.40;100.00;99055.25;4975871;28;102943;-81
2021/06/07 05:09:51;;;;;;;41.30;27.33;;;;;;;16.46;100.00;99055.56;4975161;28;104658;-75
2021/06/07 05:12:18;;;;;;;35.95;25.65;;;;;;;16.49;100.00;99049.94;4975304;28;103851;-77
2021/06/07 05:14:47;;;;;;;47.95;31.15;;;;;;;16.45;100.00;99053.88;4955685;28;103310;-76
2021/06/07 05:17:14;;;;;;;29.75;21.50;;;;;;;16.51;100.00;99050.66;4976717;28;103332;-76
2021/06/07 05:19:42;;;;;;;45.30;28.60;;;;;;;16.46;100.00;99050.22;4979652;28;104989;-77
2021/06/07 05:22:09;;;;;;;42.92;27.95;;;;;;;16.47;100.00;99049.25;4971984;28;103699;-83
2021/06/07 05:24:36;;;;;;;32.83;24.00;;;;;;;16.51;100.00;99045.31;4987469;28;103261;-86
2021/06/07 05:27:07;;;;;;;32.88;23.55;;;;;;;16.65;100.00;99052.94;4977131;28;103075;-77
2021/06/07 05:29:34;;;;;;;47.05;30.20;;;;;;;16.49;100.00;99049.94;4963224;28;109635;-78
2021/06/07 05:32:02;;;;;;;29.88;21.65;;;;;;;16.46;100.00;99058.22;4969666;28;104030;-79
2021/06/07 05:34:30;;;;;;;31.05;22.30;;;;;;;16.56;100.00;99056.44;4975107;28;103785;-77
2021/06/07 05:36:57;;;;;;;31.98;23.85;;;;;;;16.71;100.00;99059.53;4975953;28;103276;-77
2021/06/07 05:39:26;;;;;;;36.67;24.83;;;;;;;16.66;100.00;99062.63;4975671;28;104443;-77
2021/06/07 05:41:54;;;;;;;38.28;27.00;;;;;;;16.62;100.00;99065.69;4976793;28;104311;-80
2021/06/07 05:44:25;;;;;;;45.60;29.85;;;;;;;16.39;100.00;99067.78;4974941;28;103321;-76
2021/06/07 05:46:53;;;;;;;44.58;30.10;;;;;;;16.44;100.00;99065.53;4977217;28;103308;-84
2021/06/07 05:49:21;;;;;;;45.33;30.35;;;;;;;16.44;100.00;99070.88;4975206;28;105045;-84
2021/06/07 05:51:48;;;;;;;38.70;27.60;;;;;;;16.55;100.00;99068.09;4978752;28;103722;-84
2021/06/07 05:54:16;;;;;;;36.70;25.02;;;;;;;16.67;100.00;99071.47;4970831;28;103360;-84
2021/06/07 05:56:43;;;;;;;38.92;25.60;;;;;;;16.62;100.00;99074.56;4977959;28;103205;-84
2021/06/07 05:59:11;;;;;;;37.90;26.13;;;;;;;16.76;100.00;99075.94;4978256;28;103906;-85
2021/06/07 06:01:40;;;;;;;28.35;20.52;;;;;;;16.73;100.00;99074.41;4975433;28;103718;-85
2021/06/07 06:04:07;;;;;;;28.50;20.30;;;;;;;16.80;100.00;99072.03;4956806;28;103645;-84
2021/06/07 06:06:35;;;;;;;25.80;18.38;;;;;;;16.85;100.00;99080.44;4970287;28;103995;-84
2021/06/07 06:09:03;;;;;;;24.52;17.92;;;;;;;16.95;100.00;99080.47;4975998;28;104456;-84
2021/06/07 06:11:30;;;;;;;35.85;24.67;;;;;;;16.70;100.00;99079.22;4970856;28;104584;-84
2021/06/07 06:14:02;;;;;;;27.92;19.90;;;;;;;16.91;100.00;99079.03;4957913;28;103584;-84
2021/06/07 06:16:30;;;;;;;32.90;22.65;;;;;;;16.80;100.00;99083.56;4968761;28;103220;-84
2021/06/07 06:18:59;;;;;;;36.60;23.95;;;;;;;16.72;100.00;99086.09;4956613;28;104181;-85
2021/06/07 06:21:28;;;;;;;32.10;23.73;;;;;;;16.77;100.00;99083.84;4969390;28;104365;-84
2021/06/07 06:23:56;;;;;;;33.33;22.30;;;;;;;17.00;100.00;99086.22;4962164;28;103782;-84
2021/06/07 06:26:24;;;;;;;23.35;18.35;;;;;;;17.02;100.00;99087.75;4977172;28;103554;-83
2021/06/07 06:28:52;;;;;;;26.17;20.58;;;;;;;17.06;100.00;99082.97;4958117;28;103459;-84
2021/06/07 06:31:19;;;;;;;26.55;20.20;;;;;;;17.08;100.00;99094.34;4964701;28;103360;-84
2021/06/07 06:33:49;;;;;;;30.10;22.23;;;;;;;17.04;100.00;99080.44;4974976;28;103292;-84
2021/06/07 06:36:18;;;;;;;25.00;18.40;;;;;;;17.10;100.00;99087.03;4977852;28;103266;-84
2021/06/07 06:38:46;;;;;;;27.98;19.23;;;;;;;17.14;100.00;99091.09;4955354;28;106500;-84
2021/06/07 06:41:13;;;;;;;31.35;22.35;;;;;;;17.15;100.00;99098.16;4977196;28;103658;-84
2021/06/07 06:43:41;;;;;;;26.77;19.00;;;;;;;17.13;100.00;99100.94;4958047;28;103217;-83
2021/06/07 06:46:09;;;;;;;29.05;21.92;;;;;;;17.04;100.00;99098.31;4966671;28;103164;-84
2021/06/07 06:48:37;;;;;;;31.88;21.92;;;;;;;17.02;100.00;99094.91;4972099;28;103957;-83
2021/06/07 06:51:05;;;;;;;29.15;22.13;;;;;;;17.03;100.00;99099.28;4976785;28;103699;-84
2021/06/07 06:53:34;;;;;;;25.85;18.45;;;;;;;16.85;100.00;99096.47;4973021;28;104320;-84
2021/06/07 06:56:02;;;;;;;28.42;20.40;;;;;;;17.00;100.00;99102.22;4974971;28;103458;-84
2021/06/07 06:58:30;;;;;;;27.73;19.42;;;;;;;17.02;100.00;99102.91;4978237;28;105101;-84
2021/06/07 07:00:58;;;;;;;37.63;25.15;;;;;;;16.65;100.00;99095.63;4980279;28;103786;-84
2021/06/07 07:03:25;;;;;;;36.90;24.95;;;;;;;16.76;100.00;99103.47;4974506;28;103946;-84
2021/06/07 07:05:54;;;;;;;31.35;21.60;;;;;;;16.93;100.00;99098.41;4979313;28;103322;-82
2021/06/07 07:08:24;;;;;;;31.45;22.35;;;;;;;16.80;100.00;99099.56;4951288;28;106570;-83
2021/06/07 07:10:53;;;;;;;22.80;17.13;;;;;;;16.94;100.00;99103.63;4975105;28;105437;-83
2021/06/07 07:13:21;;;;;;;30.08;21.52;;;;;;;17.01;100.00;99106.59;4979664;28;103045;-84
2021/06/07 07:15:48;;;;;;;26.00;19.65;;;;;;;16.98;100.00;99110.34;4978177;28;103366;-84
2021/06/07 07:18:16;;;;;;;27.80;21.10;;;;;;;16.79;100.00;99108.53;4978113;28;110935;-85
2021/06/07 07:20:44;;;;;;;24.52;18.25;;;;;;;16.80;100.00;99104.06;4978305;28;104163;-85
2021/06/07 07:23:13;;;;;;;20.88;15.80;;;;;;;16.96;100.00;99100.81;4980213;28;103107;-84
2021/06/07 07:25:41;;;;;;;16.27;13.77;;;;;;;17.09;100.00;99101.38;4970207;28;103089;-85
2021/06/07 07:28:11;;;;;;;19.25;15.98;;;;;;;17.20;100.00;99112.75;4960534;28;106817;-85
2021/06/07 07:30:38;;;;;;;21.13;15.43;;;;;;;17.34;100.00;99098.97;4978352;28;104688;-85
2021/06/07 07:33:11;;;;;;;17.20;14.02;;;;;;;17.47;100.00;99109.31;4960446;28;103311;-85
2021/06/07 07:35:39;;;;;;;18.63;13.88;;;;;;;17.35;100.00;99102.44;4977380;28;102978;-84
2021/06/07 07:38:07;;;;;;;16.23;13.95;;;;;;;17.32;100.00;99108.06;4983375;28;105502;-85
2021/06/07 07:40:38;;;;;;;13.32;10.77;;;;;;;17.47;100.00;99106.66;4979320;28;103774;-84
2021/06/07 07:43:06;;;;;;;13.13;11.23;;;;;;;17.54;100.00;99112.28;4978978;28;103272;-84
2021/06/07 07:45:36;;;;;;;11.85;10.63;;;;;;;17.60;100.00;99112.53;4977325;28;103787;-84
2021/06/07 07:48:06;;;;;;;12.63;11.27;;;;;;;17.68;100.00;99120.69;4978497;28;103591;-85
2021/06/07 07:50:35;;;;;;;13.82;11.32;;;;;;;17.52;100.00;99117.72;4981621;28;103977;-85
2021/06/07 07:53:03;;;;;;;15.57;12.10;;;;;;;17.49;100.00;99114.53;4980660;28;103224;-84
2021/06/07 07:55:32;;;;;;;18.42;14.85;;;;;;;17.15;100.00;99123.00;4976091;28;103277;-84
2021/06/07 07:58:04;;;;;;;15.98;13.13;;;;;;;17.09;100.00;99117.41;4982337;28;104366;-84
2021/06/07 08:00:32;;;;;;;14.90;12.02;;;;;;;17.33;100.00;99115.94;4949912;28;106008;-84
2021/06/07 08:03:02;;;;;;;17.95;15.27;;;;;;;17.39;100.00;99117.22;4977721;28;103401;-84
2021/06/07 08:05:30;;;;;;;16.23;12.77;;;;;;;17.39;100.00;99117.22;4981244;28;103107;-83
2021/06/07 08:07:58;;;;;;;18.52;14.20;;;;;;;17.43;100.00;99115.94;4978583;28;104663;-84
2021/06/07 08:10:27;;;;;;;18.13;14.20;;;;;;;17.18;100.00;99113.84;4976997;28;103506;-84
2021/06/07 08:12:55;;;;;;;17.05;13.02;;;;;;;17.35;100.00;99123.81;4980401;28;103175;-84
2021/06/07 08:15:23;;;;;;;15.48;13.15;;;;;;;17.63;100.00;99114.06;4978543;28;104315;-84
2021/06/07 08:17:51;;;;;;;20.80;16.65;;;;;;;17.47;100.00;99114.66;4979005;28;104246;-84
2021/06/07 08:20:20;;;;;;;16.83;14.23;;;;;;;17.47;100.00;99114.66;4984353;28;104732;-84
2021/06/07 08:22:50;;;;;;;21.40;17.63;;;;;;;17.54;100.00;99121.16;4972529;28;103187;-84
2021/06/07 08:25:18;;;;;;;22.48;17.27;;;;;;;17.66;100.00;99117.31;4981147;28;103173;-84
2021/06/07 08:27:46;;;;;;;21.38;15.70;;;;;;;17.72;100.00;99113.22;4950169;28;105786;-84
2021/06/07 08:30:15;;;;;;;21.52;17.13;;;;;;;17.78;100.00;99112.63;4979625;28;105002;-85
2021/06/07 08:32:42;;;;;;;22.95;18.35;;;;;;;17.64;100.00;99119.28;4983359;28;103017;-84
2021/06/07 08:35:11;;;;;;;17.90;15.85;;;;;;;17.85;100.00;99114.56;4980173;28;103086;-84
2021/06/07 08:37:41;;;;;;;15.88;13.57;;;;;;;18.11;100.00;99111.22;4965301;28;106365;-83
2021/06/07 08:40:11;;;;;;;15.88;12.68;;;;;;;18.18;100.00;99115.00;4984319;28;103579;-84
2021/06/07 08:42:42;;;;;;;17.65;15.18;;;;;;;18.19;100.00;99111.34;4979330;28;103353;-84
2021/06/07 08:45:16;;;;;;;20.67;16.45;;;;;;;17.99;100.00;99110.59;4979572;28;103031;-84
2021/06/07 08:47:44;;;;;;;14.77;13.13;;;;;;;18.24;100.00;99109.06;4979100;28;104580;-84
2021/06/07 08:50:13;;;;;;;21.15;17.00;;;;;;;17.95;100.00;99114.53;4979964;28;103968;-84
2021/06/07 08:52:43;;;;;;;16.13;14.43;;;;;;;18.18;100.00;99109.66;4961144;28;103385;-83
2021/06/07 08:55:13;;;;;;;21.63;17.25;;;;;;;18.18;100.00;99109.66;4991819;28;103323;-84
2021/06/07 08:57:43;;;;;;;18.25;15.57;;;;;;;18.28;100.00;99113.09;4980052;28;103977;-84
2021/06/07 09:00:13;;;;;;;17.45;15.57;;;;;;;18.40;100.00;99107.41;4979537;28;105756;-83
2021/06/07 09:02:43;;;;;;;19.92;16.00;;;;;;;17.86;100.00;99115.41;4980037;28;103395;-84
2021/06/07 09:05:12;;;;;;;16.38;13.57;;;;;;;18.32;100.00;99118.00;4978947;28;103471;-83
2021/06/07 09:07:53;;;;;;;18.10;15.73;;;;;;;18.50;100.00;99118.91;4981857;28;104465;-84
2021/06/07 09:10:21;;;;;;;16.00;14.40;;;;;;;18.40;100.00;99131.47;4979566;28;103302;-83
2021/06/07 09:12:52;;;;;;;18.92;16.70;;;;;;;18.54;100.00;99127.47;4979593;28;103022;-83
2021/06/07 09:15:39;;;;;;;21.92;17.92;;;;;;;18.23;100.00;99124.25;4960618;28;103570;-82
2021/06/07 09:18:09;;;;;;;18.80;15.85;;;;;;;18.32;100.00;99122.50;4978738;28;104518;-82
2021/06/07 09:20:38;;;;;;;20.30;15.13;;;;;;;18.50;100.00;99121.59;4961320;28;106358;-82
2021/06/07 09:23:10;;;;;;;16.60;14.68;;;;;;;18.50;100.00;99121.59;4977959;28;103183;-82
2021/06/07 09:25:39;;;;;;;16.33;14.68;;;;;;;18.56;100.00;99114.78;4979618;28;103517;-82
2021/06/07 09:28:19;;;;;;;14.43;12.80;;;;;;;18.61;100.00;99109.81;4979338;28;109866;-82
2021/06/07 09:30:50;;;;;;;14.63;13.10;;;;;;;18.59;100.00;99114.47;4961757;28;103859;-82
2021/06/07 09:33:33;;;;;;;19.77;17.13;;;;;;;18.55;100.00;99120.31;4978335;28;103042;-82
2021/06/07 09:36:07;;;;;;;12.25;10.95;;;;;;;18.57;100.00;99116.47;4967417;28;102940;-82
2021/06/07 09:39:18;;;;;;;19.48;16.65;;;;;;;18.47;100.00;99116.50;5125575;27;103113;-83
2021/06/07 09:41:54;;;;;;;18.95;17.08;;;;;;;18.08;100.00;99114.22;5087454;27;103097;-82
2021/06/07 09:44:35;;;;;;;16.83;15.02;;;;;;;18.33;100.00;99122.34;5110017;27;104022;-81
2021/06/07 09:47:20;;;;;;;17.35;15.55;;;;;;;18.28;100.00;99121.13;5109258;27;104873;-80
2021/06/07 09:49:51;;;;;;;18.25;16.33;;;;;;;18.00;100.00;99132.78;5107335;27;103947;-83
2021/06/07 09:52:22;;;;;;;20.38;18.20;;;;;;;18.16;100.00;99125.81;5110278;27;102737;-81
2021/06/07 09:55:10;;;;;;;21.38;19.25;;;;;;;18.01;100.00;99135.34;5113751;27;104375;-82
2021/06/07 09:57:47;;;;;;;17.20;15.40;;;;;;;18.33;100.00;99126.88;5108698;27;103705;-87
2021/06/07 10:00:39;;;;;;;18.98;17.05;;;;;;;18.23;100.00;99134.94;5107066;27;104000;-91
2021/06/07 10:03:15;;;;;;;19.48;17.48;;;;;;;18.08;100.00;99123.03;5103985;27;103265;-90
2021/06/07 10:05:42;;;;;;;19.13;17.20;;;;;;;18.20;100.00;99129.03;5104961;27;104386;-91
2021/06/07 10:08:10;;;;;;;21.50;17.58;;;;;;;18.41;100.00;99126.97;5092210;27;111473;-91
2021/06/07 10:10:39;;;;;;;17.90;15.10;;;;;;;18.50;100.00;99132.28;5111146;27;103181;-86
2021/06/07 10:13:09;;;;;;;16.33;14.75;;;;;;;18.61;100.00;99125.06;5100319;27;103070;-76
2021/06/07 10:15:39;;;;;;;16.80;15.10;;;;;;;18.72;100.00;99124.84;5110991;27;103951;-81
2021/06/07 10:18:09;;;;;;;19.95;17.95;;;;;;;18.48;100.00;99122.72;5106830;27;105221;-81
2021/06/07 10:20:47;;;;;;;18.08;16.13;;;;;;;18.80;100.00;99124.91;5106482;27;103119;-80
2021/06/07 10:23:16;;;;;;;14.75;13.23;;;;;;;19.08;100.00;99122.00;5088467;27;103596;-83
2021/06/07 10:25:47;;;;;;;21.85;17.73;;;;;;;18.89;99.12;99126.69;5094683;27;105662;-84
2021/06/07 10:28:15;;;;;;;20.85;18.10;;;;;;;18.80;99.58;99128.44;5112416;27;103782;-80
2021/06/07 10:30:44;;;;;;;19.75;17.75;;;;;;;18.97;100.00;99119.56;5105952;27;103041;-79
2021/06/07 10:33:40;;;;;;;18.95;17.05;;;;;;;19.07;97.93;99127.50;5101977;27;103372;-83
2021/06/07 10:36:32;;;;;;;16.40;14.80;;;;;;;19.05;98.29;99116.97;5055161;27;104215;-83
2021/06/07 10:39:28;;;;;;;21.70;19.42;;;;;;;18.91;100.00;99113.97;5102852;27;103822;-77
2021/06/07 10:42:30;;;;;;;20.05;17.92;;;;;;;19.01;98.56;99120.91;5099818;27;103023;-83
2021/06/07 10:45:01;;;;;;;21.13;18.48;;;;;;;18.72;99.79;99125.69;5110728;27;103306;-87
2021/06/07 10:47:40;;;;;;;19.90;17.80;;;;;;;18.81;100.00;99122.06;5115492;27;103410;-83
2021/06/07 10:50:10;;;;;;;21.15;18.73;;;;;;;18.90;100.00;99123.84;5088304;27;104148;-82
2021/06/07 10:52:42;;;;;;;20.35;18.35;;;;;;;19.11;100.00;99129.69;5086386;27;102902;-78
2021/06/07 10:55:12;;;;;;;20.50;18.40;;;;;;;19.28;98.77;99128.03;5098021;27;103022;-78
2021/06/07 10:57:47;;;;;;;17.92;16.02;;;;;;;19.50;97.14;99127.56;5097343;27;104563;-76
2021/06/07 11:00:23;;;;;;;19.95;17.85;;;;;;;19.82;96.46;99120.72;5089824;27;104216;-80
2021/06/07 11:02:52;;;;;;;22.10;19.80;;;;;;;19.88;96.53;99128.09;5093629;27;102989;-79
2021/06/07 11:05:22;;;;;;;16.67;14.93;;;;;;;19.96;97.04;99122.78;5097240;27;103409;-79
2021/06/07 11:08:05;;;;;;;17.33;15.55;;;;;;;19.78;97.80;99125.56;5102612;27;104545;-78
2021/06/07 11:10:35;;;;;;;18.30;16.40;;;;;;;19.63;98.21;99124.44;5093034;27;103675;-77
2021/06/07 11:13:06;;;;;;;20.35;18.27;;;;;;;19.44;99.35;99128.19;5092294;27;102964;-79
2021/06/07 11:15:37;;;;;;;16.25;14.55;;;;;;;19.53;98.96;99121.88;5071567;27;103009;-75